sensor_id;sensor_type;location;lat;lon;timestamp;temperature;humidity
36790;DHT22;22740;52.182;8.780;2022-12-29T00:03:54;9.40;99.90
36790;DHT22;22740;52.182;8.780;2022-12-29T00:09:55;9.60;99.90
36790;DHT22;22740;52.182;8.780;2022-12-29T00:15:57;9.60;99.90
36790;DHT22;22740;52.182;8.780;2022-12-29T00:21:59;9.60;99.90
36790;DHT22;22740;52.182;8.780;2022-12-29T00:28:20;9.70;99.90
36790;DHT22;22740;52.182;8.780;2022-12-29T00:34:40;9.70;99.90
36790;DHT22;22740;52.182;8.780;2022-12-29T00:41:01;9.60;99.90
36790;DHT22;22740;52.182;8.780;2022-12-29T00:47:21;9.60;99.90
36790;DHT22;22740;52.182;8.780;2022-12-29T00:53:23;9.60;99.90
36790;DHT22;22740;52.182;8.780;2022-12-29T00:59:25;9.60;99.90
36790;DHT22;22740;52.182;8.780;2022-12-29T01:05:27;9.60;99.90
36790;DHT22;22740;52.182;8.780;2022-12-29T01:11:29;9.70;99.90
36790;DHT22;22740;52.182;8.780;2022-12-29T01:17:30;9.70;99.90
36790;DHT22;22740;52.182;8.780;2022-12-29T01:23:32;9.70;99.90
36790;DHT22;22740;52.182;8.780;2022-12-29T01:29:35;9.90;99.90
36790;DHT22;22740;52.182;8.780;2022-12-29T01:35:37;9.90;99.90
36790;DHT22;22740;52.182;8.780;2022-12-29T01:41:38;9.90;99.90
36790;DHT22;22740;52.182;8.780;2022-12-29T01:53:45;9.90;99.90
36790;DHT22;22740;52.182;8.780;2022-12-29T01:59:53;9.90;99.90
36790;DHT22;22740;52.182;8.780;2022-12-29T02:06:02;9.90;99.90
36790;DHT22;22740;52.182;8.780;2022-12-29T02:12:06;10.00;99.90
36790;DHT22;22740;52.182;8.780;2022-12-29T02:18:36;9.90;99.90
36790;DHT22;22740;52.182;8.780;2022-12-29T02:37:04;9.80;99.90
36790;DHT22;22740;52.182;8.780;2022-12-29T02:55:55;9.70;99.90
36790;DHT22;22740;52.182;8.780;2022-12-29T03:08:28;9.90;99.90
36790;DHT22;22740;52.182;8.780;2022-12-29T03:14:36;10.00;99.90
36790;DHT22;22740;52.182;8.780;2022-12-29T03:21:02;10.10;99.90
36790;DHT22;22740;52.182;8.780;2022-12-29T03:27:10;10.20;99.90
36790;DHT22;22740;52.182;8.780;2022-12-29T03:33:17;10.30;99.90
36790;DHT22;22740;52.182;8.780;2022-12-29T03:39:22;10.40;99.90
36790;DHT22;22740;52.182;8.780;2022-12-29T03:45:25;10.50;99.90
36790;DHT22;22740;52.182;8.780;2022-12-29T03:51:26;10.50;99.90
36790;DHT22;22740;52.182;8.780;2022-12-29T03:57:28;10.60;99.90
36790;DHT22;22740;52.182;8.780;2022-12-29T04:03:30;10.60;99.90
36790;DHT22;22740;52.182;8.780;2022-12-29T04:09:32;10.70;99.90
36790;DHT22;22740;52.182;8.780;2022-12-29T04:15:35;10.70;99.90
36790;DHT22;22740;52.182;8.780;2022-12-29T04:21:36;10.60;99.90
36790;DHT22;22740;52.182;8.780;2022-12-29T04:27:38;10.70;99.90
36790;DHT22;22740;52.182;8.780;2022-12-29T04:33:40;10.60;99.90
36790;DHT22;22740;52.182;8.780;2022-12-29T04:39:42;10.70;99.90
36790;DHT22;22740;52.182;8.780;2022-12-29T04:45:47;10.70;99.90
36790;DHT22;22740;52.182;8.780;2022-12-29T04:51:49;10.70;99.90
36790;DHT22;22740;52.182;8.780;2022-12-29T04:57:50;10.50;99.90
36790;DHT22;22740;52.182;8.780;2022-12-29T05:03:52;10.30;99.90
36790;DHT22;22740;52.182;8.780;2022-12-29T05:09:54;9.90;99.90
36790;DHT22;22740;52.182;8.780;2022-12-29T05:15:56;9.60;99.90
36790;DHT22;22740;52.182;8.780;2022-12-29T05:21:58;9.50;99.90
36790;DHT22;22740;52.182;8.780;2022-12-29T05:28:00;9.50;99.90
36790;DHT22;22740;52.182;8.780;2022-12-29T05:34:02;9.40;99.90
36790;DHT22;22740;52.182;8.780;2022-12-29T05:40:06;9.50;99.90
36790;DHT22;22740;52.182;8.780;2022-12-29T05:46:08;9.50;99.90
36790;DHT22;22740;52.182;8.780;2022-12-29T05:52:09;9.50;99.90
36790;DHT22;22740;52.182;8.780;2022-12-29T05:58:11;9.70;99.90
36790;DHT22;22740;52.182;8.780;2022-12-29T06:04:14;9.70;99.90
36790;DHT22;22740;52.182;8.780;2022-12-29T06:10:16;9.80;99.90
36790;DHT22;22740;52.182;8.780;2022-12-29T06:16:18;9.90;99.90
36790;DHT22;22740;52.182;8.780;2022-12-29T06:22:19;10.10;99.90
36790;DHT22;22740;52.182;8.780;2022-12-29T06:28:21;10.30;99.90
36790;DHT22;22740;52.182;8.780;2022-12-29T06:34:26;10.30;99.90
36790;DHT22;22740;52.182;8.780;2022-12-29T06:40:28;9.80;99.90
36790;DHT22;22740;52.182;8.780;2022-12-29T06:46:30;9.50;99.90
36790;DHT22;22740;52.182;8.780;2022-12-29T06:52:32;9.30;99.90
36790;DHT22;22740;52.182;8.780;2022-12-29T06:58:34;9.10;99.90
36790;DHT22;22740;52.182;8.780;2022-12-29T07:04:36;9.00;99.90
36790;DHT22;22740;52.182;8.780;2022-12-29T07:10:37;8.80;99.90
36790;DHT22;22740;52.182;8.780;2022-12-29T07:16:39;8.70;99.90
36790;DHT22;22740;52.182;8.780;2022-12-29T07:22:41;8.60;99.90
36790;DHT22;22740;52.182;8.780;2022-12-29T07:28:43;8.60;99.90
36790;DHT22;22740;52.182;8.780;2022-12-29T07:34:45;8.60;99.90
36790;DHT22;22740;52.182;8.780;2022-12-29T07:40:48;8.60;99.90
36790;DHT22;22740;52.182;8.780;2022-12-29T07:46:50;8.70;99.90
36790;DHT22;22740;52.182;8.780;2022-12-29T07:52:57;8.90;99.90
36790;DHT22;22740;52.182;8.780;2022-12-29T07:58:59;9.10;99.90
36790;DHT22;22740;52.182;8.780;2022-12-29T08:05:01;9.20;99.90
36790;DHT22;22740;52.182;8.780;2022-12-29T08:11:05;9.30;99.90
36790;DHT22;22740;52.182;8.780;2022-12-29T08:17:07;9.20;99.90
36790;DHT22;22740;52.182;8.780;2022-12-29T08:23:09;9.10;99.90
36790;DHT22;22740;52.182;8.780;2022-12-29T08:29:11;8.90;99.90
36790;DHT22;22740;52.182;8.780;2022-12-29T08:35:12;8.90;99.90
36790;DHT22;22740;52.182;8.780;2022-12-29T08:41:18;9.20;99.90
36790;DHT22;22740;52.182;8.780;2022-12-29T08:47:19;9.40;99.90
36790;DHT22;22740;52.182;8.780;2022-12-29T08:53:21;9.50;99.90
36790;DHT22;22740;52.182;8.780;2022-12-29T08:59:23;9.40;99.90
36790;DHT22;22740;52.182;8.780;2022-12-29T09:05:25;9.40;99.90
36790;DHT22;22740;52.182;8.780;2022-12-29T09:11:27;9.30;99.90
36790;DHT22;22740;52.182;8.780;2022-12-29T09:17:28;9.30;99.90
36790;DHT22;22740;52.182;8.780;2022-12-29T09:23:42;9.50;99.90
36790;DHT22;22740;52.182;8.780;2022-12-29T09:29:44;9.40;99.90
36790;DHT22;22740;52.182;8.780;2022-12-29T09:35:51;9.50;99.90
36790;DHT22;22740;52.182;8.780;2022-12-29T09:42:26;9.70;99.90
36790;DHT22;22740;52.182;8.780;2022-12-29T09:48:36;9.90;99.90
36790;DHT22;22740;52.182;8.780;2022-12-29T09:54:56;10.00;99.90
36790;DHT22;22740;52.182;8.780;2022-12-29T10:01:32;10.00;99.90
36790;DHT22;22740;52.182;8.780;2022-12-29T10:14:14;10.10;99.90
36790;DHT22;22740;52.182;8.780;2022-12-29T10:20:49;10.00;99.90
36790;DHT22;22740;52.182;8.780;2022-12-29T10:26:56;10.20;99.90
36790;DHT22;22740;52.182;8.780;2022-12-29T10:33:03;10.00;99.90
36790;DHT22;22740;52.182;8.780;2022-12-29T10:39:10;9.90;99.90
36790;DHT22;22740;52.182;8.780;2022-12-29T10:45:16;9.90;99.90
36790;DHT22;22740;52.182;8.780;2022-12-29T10:51:30;10.00;99.90
36790;DHT22;22740;52.182;8.780;2022-12-29T10:57:37;10.00;99.90
36790;DHT22;22740;52.182;8.780;2022-12-29T11:10:40;10.20;99.90
36790;DHT22;22740;52.182;8.780;2022-12-29T11:16:42;10.40;99.90
36790;DHT22;22740;52.182;8.780;2022-12-29T11:22:46;10.40;99.90
36790;DHT22;22740;52.182;8.780;2022-12-29T11:35:35;10.40;99.90
36790;DHT22;22740;52.182;8.780;2022-12-29T11:41:38;10.40;99.90
36790;DHT22;22740;52.182;8.780;2022-12-29T11:47:44;10.20;99.90
36790;DHT22;22740;52.182;8.780;2022-12-29T11:53:52;10.30;99.90
36790;DHT22;22740;52.182;8.780;2022-12-29T11:59:55;10.30;99.90
36790;DHT22;22740;52.182;8.780;2022-12-29T12:06:01;10.30;99.90
36790;DHT22;22740;52.182;8.780;2022-12-29T12:12:05;10.30;99.90
36790;DHT22;22740;52.182;8.780;2022-12-29T12:18:19;10.30;99.90
36790;DHT22;22740;52.182;8.780;2022-12-29T12:30:43;10.30;99.90
36790;DHT22;22740;52.182;8.780;2022-12-29T12:49:54;10.40;99.90
36790;DHT22;22740;52.182;8.780;2022-12-29T13:02:34;10.40;99.90
36790;DHT22;22740;52.182;8.780;2022-12-29T13:09:07;10.50;99.90
36790;DHT22;22740;52.182;8.780;2022-12-29T13:15:30;10.40;99.90
36790;DHT22;22740;52.182;8.780;2022-12-29T13:22:06;10.40;99.90
36790;DHT22;22740;52.182;8.780;2022-12-29T13:40:43;10.30;99.90
36790;DHT22;22740;52.182;8.780;2022-12-29T13:46:47;10.30;99.90
36790;DHT22;22740;52.182;8.780;2022-12-29T14:05:30;10.20;99.90
36790;DHT22;22740;52.182;8.780;2022-12-29T14:11:34;10.20;99.90
36790;DHT22;22740;52.182;8.780;2022-12-29T14:17:37;10.20;99.90
36790;DHT22;22740;52.182;8.780;2022-12-29T14:23:43;10.10;99.90
36790;DHT22;22740;52.182;8.780;2022-12-29T14:29:49;10.20;99.90
36790;DHT22;22740;52.182;8.780;2022-12-29T14:35:51;10.10;99.90
36790;DHT22;22740;52.182;8.780;2022-12-29T14:48:30;10.00;99.90
36790;DHT22;22740;52.182;8.780;2022-12-29T15:00:36;9.80;99.90
36790;DHT22;22740;52.182;8.780;2022-12-29T15:06:38;9.70;99.90
36790;DHT22;22740;52.182;8.780;2022-12-29T15:12:51;9.60;99.90
36790;DHT22;22740;52.182;8.780;2022-12-29T15:18:54;9.70;99.90
36790;DHT22;22740;52.182;8.780;2022-12-29T15:24:57;9.50;99.90
36790;DHT22;22740;52.182;8.780;2022-12-29T15:31:05;9.30;99.90
36790;DHT22;22740;52.182;8.780;2022-12-29T15:37:08;9.10;99.90
36790;DHT22;22740;52.182;8.780;2022-12-29T15:49:36;9.00;99.90
36790;DHT22;22740;52.182;8.780;2022-12-29T15:55:40;9.00;99.90
36790;DHT22;22740;52.182;8.780;2022-12-29T16:01:43;9.10;99.90
36790;DHT22;22740;52.182;8.780;2022-12-29T16:07:57;9.20;99.90
36790;DHT22;22740;52.182;8.780;2022-12-29T16:14:00;9.30;99.90
36790;DHT22;22740;52.182;8.780;2022-12-29T16:20:05;9.40;99.90
36790;DHT22;22740;52.182;8.780;2022-12-29T16:26:17;9.30;99.90
36790;DHT22;22740;52.182;8.780;2022-12-29T16:32:30;9.40;99.90
36790;DHT22;22740;52.182;8.780;2022-12-29T16:38:33;9.40;99.90
36790;DHT22;22740;52.182;8.780;2022-12-29T16:44:35;9.40;99.90
36790;DHT22;22740;52.182;8.780;2022-12-29T16:50:39;9.40;99.90
36790;DHT22;22740;52.182;8.780;2022-12-29T16:56:43;9.30;99.90
36790;DHT22;22740;52.182;8.780;2022-12-29T17:02:46;9.20;99.90
36790;DHT22;22740;52.182;8.780;2022-12-29T17:08:51;9.20;99.90
36790;DHT22;22740;52.182;8.780;2022-12-29T17:14:56;9.20;99.90
36790;DHT22;22740;52.182;8.780;2022-12-29T17:20:59;9.10;99.90
36790;DHT22;22740;52.182;8.780;2022-12-29T17:27:04;9.00;99.90
36790;DHT22;22740;52.182;8.780;2022-12-29T17:33:10;8.60;99.90
36790;DHT22;22740;52.182;8.780;2022-12-29T17:39:13;8.10;99.90
36790;DHT22;22740;52.182;8.780;2022-12-29T17:45:33;7.80;99.90
36790;DHT22;22740;52.182;8.780;2022-12-29T17:51:36;7.70;99.90
36790;DHT22;22740;52.182;8.780;2022-12-29T17:57:38;7.60;99.90
36790;DHT22;22740;52.182;8.780;2022-12-29T18:03:40;7.60;99.90
36790;DHT22;22740;52.182;8.780;2022-12-29T18:09:42;7.70;99.90
36790;DHT22;22740;52.182;8.780;2022-12-29T18:15:44;7.70;99.90
36790;DHT22;22740;52.182;8.780;2022-12-29T18:21:45;7.80;99.90
36790;DHT22;22740;52.182;8.780;2022-12-29T18:27:47;7.80;99.90
36790;DHT22;22740;52.182;8.780;2022-12-29T18:33:50;7.80;99.90
36790;DHT22;22740;52.182;8.780;2022-12-29T18:39:52;8.00;99.90
36790;DHT22;22740;52.182;8.780;2022-12-29T18:45:54;8.00;99.90
36790;DHT22;22740;52.182;8.780;2022-12-29T18:51:56;8.00;99.90
36790;DHT22;22740;52.182;8.780;2022-12-29T18:57:58;8.00;99.90
36790;DHT22;22740;52.182;8.780;2022-12-29T19:04:00;8.00;99.90
36790;DHT22;22740;52.182;8.780;2022-12-29T19:10:02;8.00;99.90
36790;DHT22;22740;52.182;8.780;2022-12-29T19:16:04;8.00;99.90
36790;DHT22;22740;52.182;8.780;2022-12-29T19:22:07;7.90;99.90
36790;DHT22;22740;52.182;8.780;2022-12-29T19:28:16;7.80;99.90
36790;DHT22;22740;52.182;8.780;2022-12-29T19:34:18;7.80;99.90
36790;DHT22;22740;52.182;8.780;2022-12-29T19:40:23;7.70;99.90
36790;DHT22;22740;52.182;8.780;2022-12-29T19:46:26;7.70;99.90
36790;DHT22;22740;52.182;8.780;2022-12-29T19:52:28;7.60;99.90
36790;DHT22;22740;52.182;8.780;2022-12-29T19:58:32;7.50;99.90
36790;DHT22;22740;52.182;8.780;2022-12-29T20:04:34;7.60;99.90
36790;DHT22;22740;52.182;8.780;2022-12-29T20:10:38;7.50;99.90
36790;DHT22;22740;52.182;8.780;2022-12-29T20:16:40;7.50;99.90
36790;DHT22;22740;52.182;8.780;2022-12-29T20:23:02;7.60;99.90
36790;DHT22;22740;52.182;8.780;2022-12-29T20:29:04;7.60;99.90
36790;DHT22;22740;52.182;8.780;2022-12-29T20:35:06;7.50;99.90
36790;DHT22;22740;52.182;8.780;2022-12-29T20:41:08;7.50;99.90
36790;DHT22;22740;52.182;8.780;2022-12-29T20:47:10;7.50;99.90
36790;DHT22;22740;52.182;8.780;2022-12-29T20:53:12;7.60;99.90
36790;DHT22;22740;52.182;8.780;2022-12-29T20:59:14;7.60;99.90
36790;DHT22;22740;52.182;8.780;2022-12-29T21:05:31;7.60;99.90
36790;DHT22;22740;52.182;8.780;2022-12-29T21:11:36;7.60;99.90
36790;DHT22;22740;52.182;8.780;2022-12-29T21:17:38;7.60;99.90
36790;DHT22;22740;52.182;8.780;2022-12-29T21:23:41;7.50;99.90
36790;DHT22;22740;52.182;8.780;2022-12-29T21:29:44;7.40;99.90
36790;DHT22;22740;52.182;8.780;2022-12-29T21:35:46;7.50;99.90
36790;DHT22;22740;52.182;8.780;2022-12-29T21:41:49;7.50;99.90
36790;DHT22;22740;52.182;8.780;2022-12-29T21:48:00;7.50;99.90
36790;DHT22;22740;52.182;8.780;2022-12-29T21:54:23;7.50;99.90
36790;DHT22;22740;52.182;8.780;2022-12-29T22:00:44;7.40;99.90
36790;DHT22;22740;52.182;8.780;2022-12-29T22:07:05;7.40;99.90
36790;DHT22;22740;52.182;8.780;2022-12-29T22:13:26;7.40;99.90
36790;DHT22;22740;52.182;8.780;2022-12-29T22:19:28;7.30;99.90
36790;DHT22;22740;52.182;8.780;2022-12-29T22:25:30;7.30;99.90
36790;DHT22;22740;52.182;8.780;2022-12-29T22:31:31;7.40;99.90
36790;DHT22;22740;52.182;8.780;2022-12-29T22:37:35;7.40;99.90
36790;DHT22;22740;52.182;8.780;2022-12-29T22:43:37;7.40;99.90
36790;DHT22;22740;52.182;8.780;2022-12-29T22:49:39;7.40;99.90
36790;DHT22;22740;52.182;8.780;2022-12-29T22:55:41;7.40;99.90
36790;DHT22;22740;52.182;8.780;2022-12-29T23:01:43;7.30;99.90
36790;DHT22;22740;52.182;8.780;2022-12-29T23:07:45;7.40;99.90
36790;DHT22;22740;52.182;8.780;2022-12-29T23:13:46;7.40;99.90
36790;DHT22;22740;52.182;8.780;2022-12-29T23:19:49;7.40;99.90
36790;DHT22;22740;52.182;8.780;2022-12-29T23:25:51;7.40;99.90
36790;DHT22;22740;52.182;8.780;2022-12-29T23:31:52;7.30;99.90
36790;DHT22;22740;52.182;8.780;2022-12-29T23:37:54;7.30;99.90
36790;DHT22;22740;52.182;8.780;2022-12-29T23:43:56;7.30;99.90
36790;DHT22;22740;52.182;8.780;2022-12-29T23:49:58;7.20;99.90
36790;DHT22;22740;52.182;8.780;2022-12-29T23:56:00;7.20;99.90
